Time;durP1;ratioP1;P1;durP2;ratioP2;P2;SDS_P1;SDS_P2;PMS_P1;PMS_P2;Temp;Humidity;BMP_temperature;BMP_pressure;BME280_temperature;BME280_humidity;BME280_pressure;Samples;Min_cycle;Max_cycle;Signal;HPM_P1;HPM_P2
2022/03/23 00:00:21;;;;;;;38.10;16.88;;;;;;;13.34;18.80;102499.41;5072721;28;20075;-73
2022/03/23 00:02:47;;;;;;;35.40;16.75;;;;;;;13.34;19.00;102497.56;5072551;28;20041;-73
2022/03/23 00:05:17;;;;;;;30.38;15.98;;;;;;;13.34;19.49;102500.25;5072773;28;20488;-73
2022/03/23 00:07:44;;;;;;;32.15;16.13;;;;;;;13.48;19.70;102492.78;5072477;28;20045;-73
2022/03/23 00:10:11;;;;;;;36.95;16.52;;;;;;;13.55;19.59;102504.72;5072412;28;20437;-73
2022/03/23 00:12:42;;;;;;;31.60;16.13;;;;;;;13.37;19.61;102492.91;5072585;28;20508;-73
2022/03/23 00:15:09;;;;;;;30.90;16.55;;;;;;;12.91;19.38;102494.22;5071439;28;20135;-71
2022/03/23 00:17:36;;;;;;;34.22;15.93;;;;;;;12.43;19.68;102494.69;5072974;28;20048;-72
2022/03/23 00:20:04;;;;;;;32.08;16.02;;;;;;;12.23;19.92;102490.97;5072867;28;20049;-72
2022/03/23 00:22:30;;;;;;;27.73;15.60;;;;;;;12.26;19.92;102493.41;5072112;28;20097;-72
2022/03/23 00:24:57;;;;;;;28.05;15.20;;;;;;;12.57;19.68;102487.16;5065506;28;20063;-72
2022/03/23 00:27:24;;;;;;;37.95;16.63;;;;;;;12.91;19.96;102488.84;5081375;28;20058;-72
2022/03/23 00:29:50;;;;;;;28.77;16.35;;;;;;;12.96;20.21;102489.28;5079540;28;20123;-73
2022/03/23 00:32:17;;;;;;;31.48;16.58;;;;;;;13.03;20.04;102493.16;5072677;28;20132;-73
2022/03/23 00:34:43;;;;;;;29.67;16.08;;;;;;;12.59;20.03;102484.31;5071287;28;20068;-72
2022/03/23 00:37:10;;;;;;;33.97;17.15;;;;;;;12.41;20.14;102487.56;5067972;28;20463;-72
2022/03/23 00:39:36;;;;;;;30.23;15.45;;;;;;;12.72;20.20;102489.50;5071807;28;20119;-72
2022/03/23 00:42:03;;;;;;;31.38;15.98;;;;;;;12.78;19.85;102489.03;5071888;28;20095;-73
2022/03/23 00:44:30;;;;;;;31.95;16.98;;;;;;;12.81;20.35;102486.06;5071419;28;20064;-72
2022/03/23 00:46:56;;;;;;;33.80;15.10;;;;;;;12.77;20.44;102482.78;5071000;28;20401;-72
2022/03/23 00:49:23;;;;;;;36.42;16.42;;;;;;;12.86;20.61;102479.28;5071437;28;20458;-73
2022/03/23 00:51:53;;;;;;;39.08;16.48;;;;;;;12.31;20.63;102488.47;5071108;28;20080;-73
2022/03/23 00:54:21;;;;;;;32.17;16.02;;;;;;;12.51;20.41;102484.13;5070361;28;20472;-73
2022/03/23 00:56:50;;;;;;;36.78;16.35;;;;;;;12.63;20.28;102478.56;5070622;28;20059;-73
2022/03/23 00:59:22;;;;;;;37.72;16.40;;;;;;;12.64;20.53;102476.72;5070557;28;20070;-73
2022/03/23 01:01:49;;;;;;;36.92;16.08;;;;;;;12.41;20.82;102468.72;5070797;28;20041;-73
2022/03/23 01:04:16;;;;;;;40.45;16.10;;;;;;;12.34;20.92;102470.25;5070218;28;20046;-72
2022/03/23 01:06:42;;;;;;;32.00;16.73;;;;;;;11.71;21.20;102466.53;5070583;28;20049;-73
2022/03/23 01:09:08;;;;;;;31.63;17.27;;;;;;;11.72;21.19;102460.16;5070730;28;20123;-72
2022/03/23 01:11:37;;;;;;;30.08;15.57;;;;;;;11.62;21.41;102469.94;5071864;28;20068;-73
2022/03/23 01:14:05;;;;;;;30.10;16.05;;;;;;;11.67;21.36;102470.47;5070729;28;20439;-72
2022/03/23 01:16:32;;;;;;;31.15;15.30;;;;;;;11.51;21.72;102461.88;5068500;28;20060;-73
2022/03/23 01:18:59;;;;;;;36.95;16.23;;;;;;;11.75;21.41;102461.75;5071650;28;20088;-72
2022/03/23 01:21:26;;;;;;;29.33;15.15;;;;;;;11.86;21.39;102451.84;5066606;28;20127;-72
2022/03/23 01:23:53;;;;;;;33.90;17.08;;;;;;;11.71;21.66;102460.31;5070748;28;20374;-72
2022/03/23 01:26:19;;;;;;;35.25;17.27;;;;;;;11.87;21.79;102448.16;5071283;28;20139;-73
2022/03/23 01:28:46;;;;;;;37.20;17.23;;;;;;;12.26;21.10;102451.19;5071019;28;20075;-73
2022/03/23 01:31:12;;;;;;;38.42;17.65;;;;;;;12.23;21.33;102456.84;5071033;28;20078;-73
2022/03/23 01:33:39;;;;;;;33.20;17.10;;;;;;;12.23;21.30;102450.59;5070982;28;20055;-72
2022/03/23 01:36:06;;;;;;;31.33;16.23;;;;;;;12.10;21.37;102451.63;5071326;28;20049;-72
2022/03/23 01:38:32;;;;;;;32.08;16.60;;;;;;;11.92;21.81;102451.31;5070268;28;20071;-72
2022/03/23 01:40:58;;;;;;;33.28;16.80;;;;;;;12.13;21.58;102450.53;5071713;28;20068;-72
2022/03/23 01:43:25;;;;;;;33.78;17.38;;;;;;;12.21;21.49;102456.13;5072188;28;20053;-73
2022/03/23 01:45:53;;;;;;;31.23;16.48;;;;;;;12.16;21.54;102452.97;5089936;28;20071;-73
2022/03/23 01:48:19;;;;;;;46.40;17.55;;;;;;;12.20;21.64;102453.56;5091414;28;20480;-73
2022/03/23 01:50:46;;;;;;;33.20;16.98;;;;;;;12.14;21.58;102450.41;5091300;28;20103;-73
2022/03/23 01:53:13;;;;;;;33.25;16.90;;;;;;;12.12;21.67;102451.50;5091287;28;20043;-72
2022/03/23 01:55:39;;;;;;;33.08;15.80;;;;;;;12.15;21.66;102451.25;5091460;28;20085;-72
2022/03/23 01:58:06;;;;;;;33.00;17.20;;;;;;;11.97;21.72;102437.50;5091886;28;20062;-73
2022/03/23 02:00:33;;;;;;;29.40;16.40;;;;;;;11.95;21.79;102438.59;5073180;28;20051;-73
2022/03/23 02:02:59;;;;;;;32.08;15.65;;;;;;;11.94;22.09;102451.22;5090553;28;20043;-73
2022/03/23 02:09:13;;;;;;;30.40;16.08;;;;;;;11.72;22.18;102445.88;5091152;28;20087;-72
2022/03/23 02:11:41;;;;;;;39.08;16.20;;;;;;;11.57;22.70;102453.34;5092781;28;20039;-72
2022/03/23 02:14:09;;;;;;;30.05;16.20;;;;;;;11.67;22.68;102449.81;5087384;28;20050;-72
2022/03/23 02:16:43;;;;;;;29.20;15.30;;;;;;;11.71;22.60;102444.19;5058777;28;20076;-73
2022/03/23 02:19:10;;;;;;;34.38;17.00;;;;;;;11.54;22.61;102442.81;5093959;28;20056;-73
2022/03/23 02:21:41;;;;;;;34.63;16.67;;;;;;;11.61;22.62;102436.81;5084714;28;20071;-73
2022/03/23 02:24:09;;;;;;;33.60;16.67;;;;;;;11.38;23.04;102445.91;5074059;28;20135;-72
2022/03/23 02:26:37;;;;;;;31.08;16.35;;;;;;;11.52;23.00;102442.09;5075071;28;20392;-72
2022/03/23 02:29:07;;;;;;;31.27;16.20;;;;;;;11.55;22.79;102447.22;5074556;28;20060;-72
2022/03/23 02:31:34;;;;;;;34.60;15.18;;;;;;;11.62;23.04;102445.72;5075257;28;20162;-72
2022/03/23 02:34:02;;;;;;;29.75;16.90;;;;;;;11.56;23.03;102432.81;5074125;28;20098;-73
2022/03/23 02:36:29;;;;;;;32.75;16.42;;;;;;;11.47;22.94;102439.78;5075153;28;20067;-73
2022/03/23 02:38:55;;;;;;;29.73;16.15;;;;;;;11.46;23.22;102435.38;5073932;28;20132;-73
2022/03/23 02:41:22;;;;;;;30.33;16.58;;;;;;;11.56;22.89;102433.66;5074792;28;20485;-73
2022/03/23 02:43:49;;;;;;;37.45;16.40;;;;;;;11.57;22.94;102431.81;5065174;28;20071;-73
2022/03/23 02:46:19;;;;;;;29.98;16.30;;;;;;;11.47;22.99;102442.47;5085449;28;20135;-71
2022/03/23 02:48:47;;;;;;;30.20;16.33;;;;;;;11.44;23.02;102440.88;5073948;28;20170;-72
2022/03/23 02:51:14;;;;;;;34.00;16.33;;;;;;;11.38;23.30;102438.72;5068619;28;20135;-72
2022/03/23 03:02:36;;;;;;;34.17;17.50;;;;;;;11.41;23.23;102435.78;5094542;28;20508;-72
2022/03/23 03:05:04;;;;;;;35.00;17.80;;;;;;;11.39;23.23;102435.03;5093410;28;20490;-72
2022/03/23 03:08:44;;;;;;;33.83;16.63;;;;;;;11.15;23.68;102437.84;5094060;28;20044;-72
2022/03/23 03:10:18;;;;;;;33.97;16.80;;;;;;;11.06;23.91;102435.03;5093465;28;20048;-72
2022/03/23 03:12:44;;;;;;;35.17;17.55;;;;;;;11.05;23.94;102434.19;5093129;28;20070;-72
2022/03/23 03:15:11;;;;;;;37.65;17.58;;;;;;;11.19;23.89;102433.94;5093042;28;20067;-72
2022/03/23 03:17:43;;;;;;;35.60;17.08;;;;;;;11.26;23.71;102431.63;5093478;28;20047;-72
2022/03/23 03:20:10;;;;;;;34.17;16.98;;;;;;;11.29;23.74;102430.53;5094422;28;20036;-72
2022/03/23 03:22:40;;;;;;;37.50;17.42;;;;;;;11.23;23.93;102430.03;5094860;28;20044;-72
2022/03/23 03:25:11;;;;;;;34.95;18.13;;;;;;;11.04;24.07;102431.63;5094101;28;20127;-72
2022/03/23 03:27:40;;;;;;;36.78;18.10;;;;;;;11.11;24.03;102430.16;5093391;28;20136;-72
2022/03/23 03:30:09;;;;;;;39.15;17.95;;;;;;;11.10;24.12;102431.13;5093281;28;20476;-72
2022/03/23 03:32:37;;;;;;;41.00;17.45;;;;;;;11.14;23.99;102433.47;5094046;28;20046;-72
2022/03/23 03:35:04;;;;;;;35.08;17.20;;;;;;;11.06;24.40;102435.88;5092796;28;20048;-72
2022/03/23 03:37:31;;;;;;;40.63;17.73;;;;;;;11.10;24.19;102434.69;5086362;28;20048;-72
2022/03/23 03:39:57;;;;;;;35.22;17.85;;;;;;;11.03;24.28;102440.63;5086587;28;20047;-72
2022/03/23 03:42:25;;;;;;;38.00;18.33;;;;;;;11.10;24.26;102448.13;5074975;28;20075;-72
2022/03/23 03:44:52;;;;;;;38.85;18.42;;;;;;;10.86;24.56;102442.84;5072936;28;20139;-72
2022/03/23 03:47:19;;;;;;;34.13;17.80;;;;;;;10.86;24.55;102434.78;5072506;28;20076;-72
2022/03/23 03:49:46;;;;;;;37.55;18.38;;;;;;;10.77;24.80;102440.88;5082646;28;20139;-72
2022/03/23 03:52:13;;;;;;;41.17;19.45;;;;;;;10.58;25.01;102430.72;5092911;28;20119;-72
2022/03/23 03:54:39;;;;;;;38.50;18.50;;;;;;;10.44;25.03;102436.22;5092769;28;20126;-72
2022/03/23 03:57:06;;;;;;;48.88;20.92;;;;;;;10.60;24.67;102434.13;5094238;28;20048;-73
2022/03/23 03:59:34;;;;;;;37.58;18.00;;;;;;;10.50;24.88;102433.97;5082290;28;20040;-72
2022/03/23 04:02:02;;;;;;;43.38;20.45;;;;;;;10.18;25.14;102438.22;5073418;28;20045;-72
2022/03/23 04:04:29;;;;;;;39.60;18.80;;;;;;;10.07;25.62;102436.34;5073242;28;21678;-72
2022/03/23 04:06:55;;;;;;;36.20;18.67;;;;;;;9.91;25.72;102438.47;5072661;28;20072;-72
2022/03/23 04:09:22;;;;;;;35.47;19.25;;;;;;;9.42;26.45;102448.28;5073063;28;20064;-72
2022/03/23 04:11:48;;;;;;;35.45;18.98;;;;;;;9.73;25.98;102435.31;5072617;28;20506;-72
2022/03/23 04:14:16;;;;;;;35.90;19.00;;;;;;;9.68;25.86;102448.19;5061542;28;20131;-72
2022/03/23 04:16:43;;;;;;;38.20;20.25;;;;;;;9.59;26.21;102443.53;5072916;28;20079;-72
2022/03/23 04:19:09;;;;;;;37.13;18.65;;;;;;;9.58;26.25;102445.34;5085571;28;20048;-72
2022/03/23 04:21:36;;;;;;;37.70;18.90;;;;;;;9.54;26.15;102452.75;5093029;28;20047;-72
2022/03/23 04:24:03;;;;;;;38.63;19.70;;;;;;;9.92;25.68;102449.06;5092445;28;20067;-72
2022/03/23 04:26:29;;;;;;;41.22;18.90;;;;;;;10.09;25.50;102446.97;5092680;28;20111;-71
2022/03/23 04:28:56;;;;;;;40.00;19.77;;;;;;;9.85;25.98;102452.31;5092908;28;20178;-72
2022/03/23 04:31:22;;;;;;;40.28;19.17;;;;;;;10.23;25.40;102449.44;5090851;28;20044;-72
2022/03/23 04:33:49;;;;;;;37.53;18.95;;;;;;;10.20;25.52;102455.03;5091622;28;20051;-72
2022/03/23 04:36:17;;;;;;;42.20;20.25;;;;;;;10.10;25.72;102459.38;5092595;28;20048;-72
2022/03/23 04:38:43;;;;;;;38.30;19.40;;;;;;;9.86;25.82;102454.06;5091635;28;20048;-71
2022/03/23 04:41:10;;;;;;;40.90;19.75;;;;;;;10.37;25.14;102451.94;5092730;28;20043;-72
2022/03/23 04:43:38;;;;;;;44.15;20.10;;;;;;;10.53;25.12;102453.50;5091412;28;20048;-72
2022/03/23 04:46:05;;;;;;;37.22;19.83;;;;;;;10.39;25.19;102459.88;5092669;28;20395;-72
2022/03/23 04:48:32;;;;;;;37.70;19.33;;;;;;;10.19;25.58;102456.88;5092135;28;20054;-73
2022/03/23 04:50:59;;;;;;;42.95;19.88;;;;;;;10.36;25.53;102452.91;5091705;28;20479;-71
2022/03/23 04:53:25;;;;;;;37.75;20.50;;;;;;;10.33;25.82;102461.19;5091201;28;20063;-73
2022/03/23 04:55:52;;;;;;;41.85;19.00;;;;;;;10.37;25.62;102459.13;5090936;28;20444;-72
2022/03/23 04:58:18;;;;;;;34.00;19.55;;;;;;;10.28;25.64;102463.38;5091225;28;20044;-72
2022/03/23 05:00:45;;;;;;;41.15;19.20;;;;;;;10.30;25.47;102455.22;5090960;28;20469;-73
2022/03/23 05:03:13;;;;;;;45.50;21.17;;;;;;;10.35;25.66;102456.59;5074405;28;20090;-73
2022/03/23 05:05:40;;;;;;;41.33;20.75;;;;;;;10.50;25.52;102458.13;5092318;28;20043;-72
2022/03/23 05:08:06;;;;;;;37.35;19.73;;;;;;;10.64;25.31;102467.78;5090891;28;20046;-72
2022/03/23 05:10:33;;;;;;;44.83;22.48;;;;;;;10.63;25.20;102462.56;5091394;28;20043;-72
2022/03/23 05:13:00;;;;;;;43.83;21.10;;;;;;;10.45;25.32;102460.28;5090994;28;20472;-72
2022/03/23 05:15:26;;;;;;;37.95;20.85;;;;;;;10.24;25.77;102468.13;5065903;28;20079;-73
2022/03/23 05:17:53;;;;;;;45.28;20.52;;;;;;;10.52;25.38;102465.22;5088389;28;20040;-72
2022/03/23 05:20:20;;;;;;;42.03;20.23;;;;;;;10.45;25.63;102462.13;5091168;28;20044;-72
2022/03/23 05:22:46;;;;;;;37.97;19.10;;;;;;;10.23;25.78;102466.41;5091520;28;20052;-72
2022/03/23 05:25:13;;;;;;;44.67;19.73;;;;;;;10.66;25.79;102465.00;5093212;28;20044;-72
2022/03/23 05:27:40;;;;;;;41.88;19.55;;;;;;;10.41;25.76;102464.19;5091529;28;20048;-72
2022/03/23 05:30:10;;;;;;;44.03;20.35;;;;;;;9.98;26.44;102464.69;5092251;28;20063;-73
2022/03/23 05:32:39;;;;;;;48.70;20.33;;;;;;;10.02;26.22;102466.19;5091505;28;20491;-72
2022/03/23 05:35:06;;;;;;;38.80;19.45;;;;;;;10.10;25.85;102464.75;5092264;28;20105;-72
2022/03/23 05:37:33;;;;;;;45.85;20.45;;;;;;;10.20;25.83;102465.78;5086248;28;20089;-72
2022/03/23 05:40:06;;;;;;;44.40;20.58;;;;;;;10.04;26.13;102458.88;5075411;28;20084;-72
2022/03/23 05:42:33;;;;;;;46.50;19.90;;;;;;;9.93;26.04;102457.97;5081495;28;20047;-72
2022/03/23 05:45:00;;;;;;;47.08;20.70;;;;;;;9.22;26.91;102467.53;5090002;28;20130;-73
2022/03/23 05:47:26;;;;;;;44.75;21.80;;;;;;;8.70;27.67;102457.81;5087750;28;20093;-73
2022/03/23 05:49:53;;;;;;;38.75;20.30;;;;;;;9.36;27.12;102458.56;5094139;28;20068;-72
2022/03/23 05:52:19;;;;;;;39.40;20.15;;;;;;;9.49;26.85;102452.22;5095883;28;20135;-72
2022/03/23 05:54:46;;;;;;;43.15;21.20;;;;;;;9.82;26.63;102442.69;5095988;28;20072;-72
2022/03/23 05:57:13;;;;;;;46.47;21.23;;;;;;;9.78;26.63;102443.88;5095820;28;20132;-73
2022/03/23 05:59:39;;;;;;;42.83;20.45;;;;;;;9.79;26.34;102445.59;5094960;28;20484;-73
2022/03/23 06:02:06;;;;;;;42.70;20.45;;;;;;;9.62;26.78;102448.66;5095384;28;20113;-72
2022/03/23 06:04:32;;;;;;;43.60;20.98;;;;;;;9.71;26.30;102461.38;5094804;28;20538;-72
2022/03/23 06:06:59;;;;;;;55.63;20.77;;;;;;;9.03;27.32;102460.81;5095103;28;20123;-72
2022/03/23 06:09:25;;;;;;;45.58;20.65;;;;;;;8.53;27.92;102458.97;5094720;28;20047;-72
2022/03/23 06:11:52;;;;;;;45.20;21.33;;;;;;;9.01;27.65;102454.72;5094623;28;20075;-72
2022/03/23 06:14:18;;;;;;;44.95;20.45;;;;;;;8.64;28.14;102452.88;5095283;28;20048;-72
2022/03/23 06:16:45;;;;;;;48.40;21.10;;;;;;;8.98;27.84;102457.59;5096083;28;20085;-72
2022/03/23 06:19:13;;;;;;;40.95;21.48;;;;;;;8.69;28.00;102459.63;5095157;28;20431;-72
2022/03/23 06:21:41;;;;;;;50.10;21.95;;;;;;;8.53;27.88;102456.28;5095219;28;20442;-73
2022/03/23 06:24:07;;;;;;;49.80;22.65;;;;;;;8.69;28.42;102453.44;5094414;28;20523;-73
2022/03/23 06:26:33;;;;;;;46.30;21.38;;;;;;;9.43;27.38;102463.38;5095123;28;20119;-73
2022/03/23 06:29:00;;;;;;;39.55;20.75;;;;;;;9.15;27.26;102459.09;5096087;28;20450;-72
2022/03/23 06:31:26;;;;;;;41.75;20.45;;;;;;;10.07;26.11;102468.53;5094620;28;20048;-73
2022/03/23 06:33:53;;;;;;;54.35;22.55;;;;;;;9.77;26.36;102464.47;5094944;28;20134;-72
2022/03/23 06:36:20;;;;;;;41.25;21.92;;;;;;;10.44;25.59;102469.31;5074854;28;20102;-72
2022/03/23 06:38:48;;;;;;;43.65;21.48;;;;;;;10.48;25.39;102475.31;5085998;28;20119;-72
2022/03/23 06:41:14;;;;;;;47.92;21.10;;;;;;;10.83;24.93;102469.09;5094015;28;20044;-72
2022/03/23 06:43:41;;;;;;;47.17;22.15;;;;;;;10.82;24.95;102468.19;5094405;28;20074;-72
2022/03/23 06:46:09;;;;;;;42.88;21.63;;;;;;;10.66;25.12;102473.06;5094730;28;20117;-72
2022/03/23 06:48:36;;;;;;;44.05;21.38;;;;;;;11.28;24.32;102466.44;5076002;28;20094;-72
2022/03/23 06:51:03;;;;;;;37.75;20.20;;;;;;;11.65;23.89;102477.75;5093287;28;20075;-72
2022/03/23 06:53:30;;;;;;;36.58;20.73;;;;;;;11.22;24.10;102474.00;5094302;28;20062;-71
2022/03/23 06:55:58;;;;;;;43.30;20.17;;;;;;;11.39;23.86;102479.88;5095448;28;20127;-72
2022/03/23 06:58:24;;;;;;;41.38;20.58;;;;;;;11.68;23.79;102477.53;5093699;28;20502;-72
2022/03/23 07:00:52;;;;;;;37.10;20.08;;;;;;;12.72;22.48;102474.19;5094453;28;20048;-72
2022/03/23 07:03:18;;;;;;;45.83;21.33;;;;;;;13.03;22.31;102483.22;5096164;28;20040;-72
2022/03/23 07:05:45;;;;;;;45.50;22.42;;;;;;;14.22;21.04;102477.09;5095288;28;20055;-72
2022/03/23 07:10:57;;;;;;;47.42;22.45;;;;;;;14.96;20.08;102473.75;5093405;28;20044;-73
2022/03/23 07:13:23;;;;;;;49.83;22.13;;;;;;;15.36;19.85;102472.63;5094971;28;20465;-73
2022/03/23 07:15:50;;;;;;;40.95;22.50;;;;;;;15.58;19.62;102473.22;5094428;28;20078;-73
2022/03/23 07:18:21;;;;;;;42.78;21.95;;;;;;;16.13;18.90;102465.91;5094157;28;20484;-72
2022/03/23 07:20:47;;;;;;;48.08;24.25;;;;;;;16.32;18.55;102470.28;5094791;28;20048;-72
2022/03/23 07:23:14;;;;;;;43.88;22.42;;;;;;;16.54;18.41;102469.00;5073600;28;20046;-73
2022/03/23 07:25:40;;;;;;;48.28;22.30;;;;;;;17.31;17.91;102471.88;5088135;28;20072;-72
2022/03/23 07:28:07;;;;;;;46.55;22.20;;;;;;;17.41;17.38;102467.19;5094374;28;20056;-73
2022/03/23 07:30:35;;;;;;;42.17;21.77;;;;;;;18.04;16.99;102465.84;5093378;28;20044;-72
2022/03/23 07:33:02;;;;;;;43.00;21.48;;;;;;;16.89;17.97;102472.66;5092379;28;20044;-72
2022/03/23 07:35:29;;;;;;;50.70;21.52;;;;;;;17.67;17.45;102466.25;5093908;28;20134;-72
2022/03/23 07:37:56;;;;;;;39.10;18.98;;;;;;;17.18;17.26;102466.03;5094584;28;20230;-72
2022/03/23 07:40:22;;;;;;;36.53;20.85;;;;;;;16.95;17.60;102465.72;5094678;28;20101;-72
2022/03/23 07:42:51;;;;;;;44.90;20.42;;;;;;;17.21;17.43;102482.84;5093616;28;20072;-73
2022/03/23 07:45:18;;;;;;;45.17;21.83;;;;;;;17.82;16.96;102475.44;5093268;28;20067;-73
2022/03/23 07:47:44;;;;;;;66.35;21.95;;;;;;;18.11;16.69;102476.91;5093195;28;20044;-72
2022/03/23 07:50:11;;;;;;;50.70;21.83;;;;;;;18.42;16.67;102472.53;5073325;28;20079;-72
2022/03/23 07:52:49;;;;;;;38.15;20.58;;;;;;;19.43;16.21;102466.56;5089001;28;20048;-68
2022/03/23 07:55:19;;;;;;;55.28;21.77;;;;;;;19.35;16.05;102473.94;5065098;28;20044;-75
2022/03/23 07:57:46;;;;;;;56.72;21.75;;;;;;;19.33;15.56;102457.75;5094553;28;20466;-75
2022/03/23 08:00:14;;;;;;;41.45;21.05;;;;;;;19.42;15.60;102455.88;5094964;28;20056;-75
2022/03/23 08:02:41;;;;;;;41.15;21.13;;;;;;;19.02;15.71;102466.69;5095204;28;20047;-76
2022/03/23 08:05:09;;;;;;;42.10;19.15;;;;;;;19.69;15.15;102462.72;5094879;28;20052;-75
2022/03/23 08:07:36;;;;;;;37.88;19.02;;;;;;;19.75;15.06;102464.72;5094498;28;20048;-74
2022/03/23 08:10:03;;;;;;;34.20;19.33;;;;;;;18.64;15.80;102464.69;5093012;28;20047;-75
2022/03/23 08:12:30;;;;;;;35.22;19.60;;;;;;;18.67;15.78;102459.78;5094293;28;20086;-76
2022/03/23 08:14:56;;;;;;;31.20;18.35;;;;;;;18.40;15.77;102469.13;5094477;28;20040;-75
2022/03/23 08:17:23;;;;;;;41.40;19.40;;;;;;;19.18;15.50;102465.81;5094644;28;20047;-74
2022/03/23 08:20:32;;;;;;;37.95;17.80;;;;;;;19.08;15.60;102470.59;5096131;28;20062;-75
2022/03/23 08:22:37;;;;;;;37.42;19.10;;;;;;;19.95;14.88;102470.56;5094214;28;20087;-77
2022/03/23 08:25:08;;;;;;;31.40;18.30;;;;;;;20.55;15.03;102467.06;5082439;28;20052;-78
2022/03/23 08:27:34;;;;;;;37.78;18.90;;;;;;;21.37;14.19;102467.06;5093764;28;20051;-78
2022/03/23 08:30:01;;;;;;;44.30;19.40;;;;;;;20.99;14.13;102465.44;5074515;28;20041;-77
2022/03/23 08:32:28;;;;;;;30.92;18.60;;;;;;;21.46;13.92;102464.22;5086312;28;20046;-77
2022/03/23 08:34:54;;;;;;;51.83;20.48;;;;;;;20.07;14.45;102473.72;5093807;28;20508;-77
2022/03/23 08:37:21;;;;;;;51.08;19.05;;;;;;;21.12;14.11;102466.53;5093915;28;20051;-78
2022/03/23 08:39:48;;;;;;;34.80;17.80;;;;;;;21.51;13.88;102472.69;5093042;28;20485;-78
2022/03/23 08:42:15;;;;;;;42.42;18.35;;;;;;;21.56;13.70;102468.38;5063603;28;20057;-78
2022/03/23 08:44:41;;;;;;;35.92;17.67;;;;;;;21.75;13.51;102474.25;5071193;28;20052;-77
2022/03/23 08:47:09;;;;;;;37.25;17.42;;;;;;;22.64;13.09;102476.66;5093777;28;20043;-77
2022/03/23 08:49:35;;;;;;;34.13;18.95;;;;;;;23.03;12.69;102468.72;5069171;28;20109;-77
2022/03/23 08:52:02;;;;;;;38.22;19.58;;;;;;;22.50;12.74;102471.09;5091153;28;20052;-75
2022/03/23 08:54:29;;;;;;;30.77;19.48;;;;;;;22.34;13.13;102474.06;5092571;28;20036;-76
2022/03/23 08:56:56;;;;;;;30.35;18.75;;;;;;;22.82;12.85;102474.28;5094176;28;20101;-76
2022/03/23 08:59:22;;;;;;;39.38;18.77;;;;;;;22.60;12.89;102476.19;5094037;28;20396;-76
2022/03/23 09:01:50;;;;;;;31.48;17.83;;;;;;;22.22;13.01;102475.59;5093510;28;20097;-76
2022/03/23 09:04:17;;;;;;;31.73;18.30;;;;;;;21.84;13.36;102476.72;5093925;28;20054;-71
2022/03/23 09:06:43;;;;;;;38.63;19.35;;;;;;;21.82;13.73;102476.06;5093991;28;20454;-72
2022/03/23 09:09:13;;;;;;;37.00;19.13;;;;;;;21.58;13.71;102479.94;5091506;28;20040;-72
2022/03/23 09:11:43;;;;;;;30.48;16.65;;;;;;;22.42;14.24;102471.19;5094380;28;20047;-72
2022/03/23 09:14:14;;;;;;;32.90;17.98;;;;;;;22.26;13.32;102469.56;5092680;28;20048;-71
2022/03/23 09:16:43;;;;;;;33.17;17.95;;;;;;;22.48;13.71;102464.13;5093383;28;20508;-71
2022/03/23 09:19:14;;;;;;;34.00;18.10;;;;;;;22.80;13.47;102474.47;5094677;28;20407;-72
2022/03/23 09:21:40;;;;;;;36.45;18.38;;;;;;;22.51;13.44;102467.31;5091997;28;20040;-71
2022/03/23 09:24:07;;;;;;;32.67;19.08;;;;;;;23.00;12.88;102465.53;5093657;28;20442;-72
2022/03/23 09:26:33;;;;;;;34.83;17.15;;;;;;;22.82;13.18;102460.59;5091952;28;20044;-71
2022/03/23 09:29:00;;;;;;;29.88;17.05;;;;;;;23.32;12.33;102457.75;5092952;28;20051;-73
2022/03/23 09:31:27;;;;;;;31.90;16.98;;;;;;;23.33;12.63;102460.31;5079159;28;20048;-72
2022/03/23 09:33:54;;;;;;;26.35;16.42;;;;;;;23.08;12.73;102459.91;5079753;28;20039;-72
2022/03/23 09:37:47;;;;;;;33.67;17.55;;;;;;;23.38;11.88;102467.88;5091547;28;20048;-71
2022/03/23 09:39:07;;;;;;;34.55;16.50;;;;;;;22.71;12.71;102463.88;5089673;28;20128;-72
2022/03/23 09:41:34;;;;;;;24.52;14.48;;;;;;;22.91;13.86;102459.38;5090590;28;20040;-71
2022/03/23 09:44:01;;;;;;;25.38;15.38;;;;;;;23.79;12.46;102453.31;5092254;28;20044;-71
2022/03/23 09:46:28;;;;;;;27.42;16.70;;;;;;;24.38;11.58;102458.06;5093170;28;20403;-72
2022/03/23 09:48:55;;;;;;;24.27;16.98;;;;;;;23.68;11.16;102454.75;5092344;28;20044;-71
2022/03/23 09:51:22;;;;;;;23.15;15.30;;;;;;;23.29;11.60;102469.09;5092196;28;20127;-71
2022/03/23 09:53:49;;;;;;;33.33;16.17;;;;;;;22.49;11.79;102460.31;5092538;28;20040;-71
2022/03/23 09:56:16;;;;;;;25.40;15.80;;;;;;;22.18;12.93;102460.66;5092112;28;20087;-71
2022/03/23 09:58:42;;;;;;;31.13;16.38;;;;;;;22.02;12.69;102461.78;5093349;28;20511;-71
2022/03/23 10:01:29;;;;;;;34.95;16.05;;;;;;;22.77;12.33;102446.66;5091898;28;20051;-72
2022/03/23 10:04:26;;;;;;;28.40;15.50;;;;;;;23.20;13.13;102452.84;5092323;28;20117;-72
2022/03/23 10:07:14;;;;;;;34.65;14.82;;;;;;;23.61;11.71;102449.25;5081133;28;20048;-72
2022/03/23 10:10:28;;;;;;;24.30;15.57;;;;;;;23.83;11.86;102444.47;5091736;28;20075;-72
2022/03/23 10:13:17;;;;;;;25.35;16.33;;;;;;;22.70;11.47;102451.22;5083964;28;20044;-72
2022/03/23 10:16:40;;;;;;;27.67;17.00;;;;;;;23.13;11.52;102449.25;5091258;28;20086;-72
2022/03/23 10:19:07;;;;;;;27.55;15.48;;;;;;;23.02;11.47;102453.34;5082182;28;20075;-71
2022/03/23 10:21:37;;;;;;;33.08;16.70;;;;;;;22.27;12.40;102449.38;5091297;28;20492;-71
2022/03/23 10:24:04;;;;;;;32.67;16.93;;;;;;;22.47;11.81;102456.97;5086132;28;20093;-72
2022/03/23 10:26:32;;;;;;;26.15;16.23;;;;;;;23.07;12.23;102447.28;5092556;28;20044;-71
2022/03/23 10:29:00;;;;;;;31.95;18.10;;;;;;;22.01;12.51;102447.25;5091946;28;20040;-71
2022/03/23 10:31:27;;;;;;;28.13;17.95;;;;;;;22.68;11.98;102451.44;5092494;28;20040;-71
2022/03/23 10:33:58;;;;;;;38.90;16.65;;;;;;;22.76;11.85;102445.81;5060387;28;20047;-72
2022/03/23 10:36:28;;;;;;;26.40;17.10;;;;;;;22.08;12.79;102444.56;5089681;28;20043;-71
2022/03/23 10:39:04;;;;;;;40.22;18.08;;;;;;;21.74;12.88;102448.00;5095039;28;20047;-72
2022/03/23 10:41:31;;;;;;;31.92;18.33;;;;;;;22.57;12.11;102449.25;5091130;28;20040;-71
2022/03/23 10:44:01;;;;;;;24.38;16.88;;;;;;;22.52;12.32;102440.78;5078340;28;20518;-71
2022/03/23 10:46:27;;;;;;;26.73;16.73;;;;;;;22.69;11.72;102436.72;5077176;28;20132;-71
2022/03/23 10:49:01;;;;;;;26.35;16.02;;;;;;;23.27;12.25;102442.78;5096431;28;20040;-71
2022/03/23 10:51:32;;;;;;;31.55;17.20;;;;;;;23.66;11.89;102438.50;5096631;28;20067;-71
2022/03/23 10:54:20;;;;;;;29.23;16.50;;;;;;;22.93;12.14;102432.66;5096209;28;20074;-71
2022/03/23 10:56:47;;;;;;;28.17;17.27;;;;;;;23.35;12.06;102436.28;5094030;28;20052;-71
2022/03/23 10:59:22;;;;;;;32.22;16.02;;;;;;;22.36;12.14;102439.19;5095599;28;20406;-72
2022/03/23 11:02:01;;;;;;;28.42;16.73;;;;;;;22.33;11.91;102429.47;5093975;28;20036;-72
2022/03/23 11:04:29;;;;;;;25.98;15.02;;;;;;;23.04;11.65;102428.50;5095541;28;20400;-71
2022/03/23 11:06:58;;;;;;;30.98;16.75;;;;;;;22.43;12.07;102429.13;5094244;28;20052;-71
2022/03/23 11:18:12;;;;;;;25.60;16.85;;;;;;;22.24;11.73;102411.50;5095467;28;20044;-72
2022/03/23 11:20:56;;;;;;;26.48;16.98;;;;;;;23.24;12.26;102407.59;5084424;28;20077;-71
2022/03/23 11:23:35;;;;;;;35.85;17.52;;;;;;;23.32;12.24;102405.72;5094275;28;20064;-72
2022/03/23 11:26:12;;;;;;;27.35;15.88;;;;;;;24.12;10.85;102396.63;5094921;28;20400;-71
2022/03/23 11:28:44;;;;;;;25.45;17.27;;;;;;;23.58;11.24;102396.75;5094823;28;20044;-72
2022/03/23 11:31:18;;;;;;;26.17;16.23;;;;;;;22.59;11.69;102397.91;5094603;28;20058;-71
2022/03/23 11:33:52;;;;;;;29.70;15.38;;;;;;;24.13;11.25;102392.84;5095081;28;20507;-72
2022/03/23 11:36:22;;;;;;;28.02;16.02;;;;;;;24.29;11.24;102388.00;5094613;28;20455;-72
2022/03/23 11:38:52;;;;;;;26.13;16.85;;;;;;;22.52;11.47;102388.81;5095035;28;20040;-72